Time;durP1;ratioP1;P1;durP2;ratioP2;P2;SDS_P1;SDS_P2;PMS_P1;PMS_P2;Temp;Humidity;BMP_temperature;BMP_pressure;BME280_temperature;BME280_humidity;BME280_pressure;Samples;Min_cycle;Max_cycle;Signal;HPM_P1;HPM_P2
2022/02/04 00:24:35;;;;;;;26.25;16.95;;;;;;;5.51;100.00;100431.38;5027530;28;20056;-83
2022/02/04 00:27:08;;;;;;;22.00;15.07;;;;;;;5.47;100.00;100428.75;5011130;28;20079;-85
2022/02/04 00:29:43;;;;;;;26.80;16.95;;;;;;;5.47;100.00;100423.56;5043191;28;20075;-86
2022/02/04 00:32:11;;;;;;;23.20;15.65;;;;;;;5.49;100.00;100431.34;5048465;28;20083;-84
2022/02/04 00:34:43;;;;;;;27.45;15.48;;;;;;;5.45;100.00;100425.25;5024858;28;20045;-85
2022/02/04 00:37:20;;;;;;;29.38;17.73;;;;;;;5.45;100.00;100421.81;5036911;28;20412;-85
2022/02/04 00:39:54;;;;;;;26.98;16.90;;;;;;;5.42;100.00;100424.34;5032494;28;20048;-82
2022/02/04 00:42:21;;;;;;;;;;;;;;;5.41;100.00;100433.88;5029458;28;20520;-83
2022/02/04 00:44:49;;;;;;;28.40;17.00;;;;;;;5.45;100.00;100434.78;5018479;28;21079;-86
2022/02/04 00:47:19;;;;;;;24.15;15.95;;;;;;;5.44;100.00;100431.31;5012928;28;20106;-85
2022/02/04 00:49:58;;;;;;;25.35;16.38;;;;;;;5.48;100.00;100442.59;5035087;28;20150;-85
2022/02/04 00:52:40;;;;;;;25.95;16.38;;;;;;;5.50;100.00;100446.09;5036972;28;20049;-83
2022/02/04 01:06:22;;;;;;;28.52;15.88;;;;;;;5.55;100.00;100444.38;5034452;28;20044;-85
2022/02/04 01:26:10;;;;;;;27.30;17.70;;;;;;;5.50;100.00;100442.59;5025185;28;20063;-86
2022/02/04 01:28:40;;;;;;;30.70;17.55;;;;;;;5.52;100.00;100443.50;5029831;28;20045;-84
2022/02/04 01:31:11;;;;;;;31.98;19.73;;;;;;;5.55;100.00;100443.50;5030140;28;20053;-85
2022/02/04 01:33:39;;;;;;;27.58;17.83;;;;;;;5.54;100.00;100442.66;5037478;28;20048;-83
2022/02/04 01:36:06;;;;;;;28.73;17.95;;;;;;;5.54;100.00;100439.16;5035856;28;20085;-83
2022/02/04 01:38:33;;;;;;;28.45;17.98;;;;;;;5.53;100.00;100438.31;5038712;28;20056;-87
2022/02/04 01:41:00;;;;;;;26.60;17.10;;;;;;;5.52;100.00;100436.56;5038877;28;20036;-86
2022/02/04 01:43:28;;;;;;;28.08;18.17;;;;;;;5.55;100.00;100439.16;5035322;28;20060;-85
2022/02/04 01:45:59;;;;;;;28.80;17.83;;;;;;;5.57;100.00;100434.88;5038317;28;20605;-87
2022/02/04 01:48:27;;;;;;;26.45;16.50;;;;;;;5.58;99.63;100427.94;5025402;28;20715;-85
2022/02/04 01:50:54;;;;;;;28.90;17.17;;;;;;;5.56;99.82;100435.72;5037684;28;20148;-85
2022/02/04 01:53:27;;;;;;;26.73;16.48;;;;;;;5.55;99.89;100431.38;5039563;28;20059;-83
2022/02/04 01:55:59;;;;;;;;;;;;;;;5.54;99.70;100428.78;5033797;28;20057;-85
2022/02/04 01:58:27;;;;;;;26.42;16.85;;;;;;;5.55;99.42;100426.19;5039653;28;19936;-86
2022/02/04 02:00:54;;;;;;;27.40;16.55;;;;;;;5.56;99.60;100430.53;5031754;28;20115;-84
2022/02/04 02:03:22;;;;;;;25.85;16.08;;;;;;;5.54;99.73;100427.06;5036995;28;20045;-83
2022/02/04 02:05:50;;;;;;;23.10;15.15;;;;;;;5.59;99.11;100425.38;5024109;28;20570;-85
2022/02/04 02:08:20;;;;;;;28.52;17.20;;;;;;;5.58;98.66;100412.38;5048048;28;20051;-87
2022/02/04 02:10:49;;;;;;;27.80;16.38;;;;;;;5.57;98.62;100411.50;5017750;28;20045;-86
2022/02/04 02:13:23;;;;;;;22.60;15.43;;;;;;;5.58;98.46;100413.25;5038220;28;20055;-85
2022/02/04 02:16:01;;;;;;;26.23;15.93;;;;;;;5.58;98.03;100418.44;5058932;28;20045;-84
2022/02/04 02:43:54;;;;;;;25.15;16.20;;;;;;;5.65;96.19;100421.94;5042396;28;20040;-87
2022/02/04 02:49:22;;;;;;;27.85;15.50;;;;;;;5.64;96.93;100422.81;5029245;28;20072;-86
2022/02/04 02:52:00;;;;;;;28.75;16.48;;;;;;;5.64;97.11;100412.41;5039554;28;20049;-84
2022/02/04 02:59:58;;;;;;;21.88;15.35;;;;;;;5.62;97.34;100412.41;5012171;28;20108;-84
2022/02/04 03:02:25;;;;;;;27.23;16.48;;;;;;;5.63;97.60;100408.97;5038312;28;20048;-85
2022/02/04 03:04:53;;;;;;;29.08;16.10;;;;;;;5.65;97.54;100408.97;5034424;28;20075;-86
2022/02/04 03:07:20;;;;;;;27.30;16.67;;;;;;;5.62;97.67;100404.63;5046158;28;20072;-85
2022/02/04 03:09:47;;;;;;;25.30;15.75;;;;;;;5.63;97.81;100400.28;5023782;28;20036;-86
2022/02/04 03:12:14;;;;;;;24.35;15.52;;;;;;;5.66;97.42;100399.44;5035170;28;20049;-83
2022/02/04 03:14:40;;;;;;;26.55;14.85;;;;;;;5.66;97.54;100389.94;5039209;28;20037;-86
2022/02/04 03:17:10;;;;;;;27.58;16.42;;;;;;;5.64;97.89;100399.44;5041135;28;20056;-84
2022/02/04 03:19:40;;;;;;;26.63;16.60;;;;;;;5.64;97.43;100399.44;5037557;28;20484;-84
2022/02/04 03:22:11;;;;;;;27.75;16.92;;;;;;;5.64;97.81;100394.25;5035157;28;20044;-86
2022/02/04 03:24:39;;;;;;;26.33;15.73;;;;;;;5.65;97.68;100397.72;5026184;28;20047;-85
2022/02/04 03:27:09;;;;;;;28.17;16.75;;;;;;;5.65;98.23;100393.38;5039694;28;20045;-86
2022/02/04 03:29:54;;;;;;;26.95;16.20;;;;;;;5.66;97.76;100386.44;5043783;28;20063;-85
2022/02/04 03:32:24;;;;;;;28.20;16.88;;;;;;;5.65;97.76;100384.75;5048650;28;20048;-87
2022/02/04 03:34:51;;;;;;;26.63;15.73;;;;;;;5.65;97.75;100383.00;5024929;28;20060;-87
2022/02/04 03:37:18;;;;;;;25.00;16.27;;;;;;;5.67;97.59;100386.50;5044546;28;20045;-86
2022/02/04 03:39:44;;;;;;;27.92;17.00;;;;;;;5.67;97.49;100378.69;5026819;28;20623;-85
2022/02/04 03:42:11;;;;;;;22.52;15.70;;;;;;;5.70;97.25;100376.09;5046617;28;20075;-85
2022/02/04 03:44:38;;;;;;;24.40;16.88;;;;;;;5.67;97.17;100378.69;5046013;28;20040;-87
2022/02/04 03:47:05;;;;;;;24.52;16.60;;;;;;;5.68;97.07;100387.34;5033814;28;20068;-87
2022/02/04 03:49:32;;;;;;;27.27;15.70;;;;;;;5.67;97.42;100386.50;5025761;28;20049;-85
2022/02/04 03:51:58;;;;;;;24.40;14.85;;;;;;;5.69;97.00;100376.09;5026892;28;20050;-86
2022/02/04 03:54:25;;;;;;;23.83;14.93;;;;;;;5.69;97.37;100382.16;5048316;28;20313;-84
2022/02/04 03:56:52;;;;;;;25.70;17.85;;;;;;;5.69;97.04;100382.16;5032985;28;20049;-85
2022/02/04 03:59:19;;;;;;;24.98;15.10;;;;;;;5.68;97.01;100375.22;5024215;28;20060;-85
2022/02/04 04:01:46;;;;;;;24.92;16.52;;;;;;;5.73;96.42;100378.72;5044284;28;20037;-86
2022/02/04 04:04:12;;;;;;;29.50;17.38;;;;;;;5.73;96.31;100380.47;5039834;28;20040;-85
2022/02/04 04:06:39;;;;;;;28.75;16.77;;;;;;;5.73;96.50;100383.06;5026033;28;20222;-86
2022/02/04 04:09:06;;;;;;;26.88;15.25;;;;;;;5.75;96.34;100376.13;5024707;28;20048;-84
2022/02/04 04:11:32;;;;;;;27.48;15.95;;;;;;;5.74;96.20;100377.84;5016953;28;20041;-85
2022/02/04 04:13:59;;;;;;;27.33;16.30;;;;;;;5.73;96.43;100373.53;5011948;28;20104;-84
2022/02/04 04:16:27;;;;;;;29.08;16.85;;;;;;;5.74;96.57;100372.66;5062944;28;20060;-85
2022/02/04 04:18:54;;;;;;;23.95;13.82;;;;;;;5.74;96.50;100377.00;5050924;28;20067;-86
2022/02/04 04:21:21;;;;;;;24.50;15.77;;;;;;;5.75;96.57;100373.53;5052205;28;20102;-86
2022/02/04 04:23:47;;;;;;;25.80;16.63;;;;;;;5.76;95.89;100375.28;5045421;28;20037;-84
2022/02/04 04:26:14;;;;;;;24.83;17.63;;;;;;;5.74;96.22;100380.47;5045855;28;20049;-85
2022/02/04 04:28:40;;;;;;;24.35;15.30;;;;;;;5.74;96.02;100374.41;5025762;28;20041;-86
2022/02/04 04:31:07;;;;;;;24.40;15.88;;;;;;;5.74;96.17;100371.81;5043438;28;20067;-84
2022/02/04 04:33:33;;;;;;;27.58;15.73;;;;;;;5.75;96.17;100374.41;5039429;28;20056;-84
2022/02/04 04:36:00;;;;;;;24.92;16.45;;;;;;;5.74;96.23;100374.41;5019536;28;20047;-85
2022/02/04 04:38:33;;;;;;;28.15;15.48;;;;;;;5.74;96.27;100366.63;5042084;28;20064;-85
2022/02/04 04:41:14;;;;;;;26.08;16.45;;;;;;;5.73;96.04;100360.53;5025183;28;20196;-81
2022/02/04 04:44:02;;;;;;;26.52;16.88;;;;;;;5.71;96.22;100357.06;5045999;28;20049;-85
2022/02/04 05:25:41;;;;;;;24.95;16.65;;;;;;;5.71;96.32;100357.06;5032417;28;20117;-85
2022/02/04 05:30:38;;;;;;;23.75;14.90;;;;;;;5.82;95.82;100314.72;5035981;28;20064;-84
2022/02/04 05:33:05;;;;;;;23.08;14.27;;;;;;;5.82;95.65;100302.59;5010652;28;20049;-86
2022/02/04 05:35:33;;;;;;;23.20;14.10;;;;;;;5.82;95.81;100312.97;5020316;28;20049;-82
2022/02/04 05:38:02;;;;;;;22.63;13.80;;;;;;;5.86;95.91;100306.06;4994265;28;20106;-85
2022/02/04 05:40:36;;;;;;;21.75;14.02;;;;;;;5.83;95.88;100300.84;5003874;28;20126;-84
2022/02/04 05:43:14;;;;;;;23.80;13.27;;;;;;;5.83;95.98;100306.91;5048543;28;20074;-82
2022/02/04 05:45:43;;;;;;;23.60;14.68;;;;;;;5.85;96.10;100299.13;5035049;28;20081;-84
2022/02/04 05:48:10;;;;;;;22.38;14.10;;;;;;;5.86;95.92;100300.88;5031889;28;20479;-83
2022/02/04 05:50:46;;;;;;;18.33;13.63;;;;;;;5.89;96.16;100295.69;5000198;28;20055;-83
2022/02/04 05:53:17;;;;;;;22.52;13.50;;;;;;;5.88;96.26;100300.03;5034224;28;20056;-85
2022/02/04 05:56:01;;;;;;;22.85;15.10;;;;;;;5.89;96.29;100286.19;5015218;28;20160;-83
2022/02/04 05:58:39;;;;;;;21.15;13.60;;;;;;;5.90;96.10;100287.03;5047949;28;20048;-85
2022/02/04 06:01:26;;;;;;;21.10;12.82;;;;;;;5.90;95.82;100279.25;5014472;28;20049;-83
2022/02/04 06:03:58;;;;;;;21.75;14.23;;;;;;;5.92;96.12;100285.31;5019135;28;20080;-84
2022/02/04 06:09:34;;;;;;;24.63;13.85;;;;;;;5.92;96.26;100280.13;5044688;28;20136;-83
2022/02/04 06:12:22;;;;;;;18.35;11.98;;;;;;;5.91;96.09;100258.47;5034927;28;20048;-84
2022/02/04 06:14:57;;;;;;;17.05;12.48;;;;;;;5.94;95.74;100263.69;5017646;28;20187;-86
2022/02/04 06:22:54;;;;;;;17.83;11.93;;;;;;;5.91;96.11;100279.25;5035426;28;20471;-83
2022/02/04 06:25:21;;;;;;;21.00;12.57;;;;;;;5.90;96.06;100280.09;5012403;28;20153;-86
2022/02/04 06:27:48;;;;;;;20.70;11.98;;;;;;;5.90;96.35;100274.03;5012689;28;20056;-87
2022/02/04 06:30:16;;;;;;;16.80;11.55;;;;;;;5.89;96.66;100283.56;5034980;28;20067;-84
2022/02/04 06:32:42;;;;;;;18.95;12.20;;;;;;;5.88;96.90;100287.03;5025995;28;20590;-86
2022/02/04 06:35:11;;;;;;;20.73;13.60;;;;;;;5.87;96.97;100277.50;5035581;28;20047;-83
2022/02/04 06:37:38;;;;;;;22.63;12.13;;;;;;;5.87;97.06;100272.31;5038590;28;20049;-82
2022/02/04 06:40:07;;;;;;;21.73;13.30;;;;;;;5.85;97.37;100281.81;5033265;28;20381;-83
2022/02/04 06:42:36;;;;;;;18.98;12.50;;;;;;;5.87;96.96;100274.91;5019894;28;20481;-85
2022/02/04 06:45:05;;;;;;;18.83;12.95;;;;;;;5.87;97.04;100274.91;5019121;28;20036;-83
2022/02/04 06:47:33;;;;;;;20.08;12.70;;;;;;;5.89;97.15;100278.38;5024617;28;20505;-82
2022/02/04 06:49:59;;;;;;;20.00;12.90;;;;;;;5.89;96.87;100275.78;5023373;28;20060;-86
2022/02/04 06:52:26;;;;;;;18.73;11.80;;;;;;;5.90;96.93;100279.25;5033256;28;20049;-84
2022/02/04 06:54:53;;;;;;;17.73;11.85;;;;;;;5.91;96.75;100281.84;5024310;28;20118;-86
2022/02/04 06:57:22;;;;;;;20.23;12.30;;;;;;;5.90;96.45;100279.25;5016164;28;20045;-82
2022/02/04 06:59:51;;;;;;;17.23;11.32;;;;;;;5.90;96.73;100281.84;5038623;28;20037;-86
2022/02/04 07:02:20;;;;;;;18.15;11.30;;;;;;;5.92;96.61;100272.34;5020634;28;20055;-82
2022/02/04 07:04:47;;;;;;;17.60;11.63;;;;;;;5.93;96.82;100276.63;5012189;28;20045;-83
2022/02/04 07:07:15;;;;;;;17.40;11.15;;;;;;;5.91;97.00;100281.84;5034741;28;20089;-87
2022/02/04 07:09:58;;;;;;;19.55;12.18;;;;;;;5.87;97.65;100277.50;5022556;28;20083;-83
2022/02/04 07:12:33;;;;;;;16.80;11.52;;;;;;;5.82;98.04;100278.34;5045948;28;21210;-86
2022/02/04 07:15:23;;;;;;;15.50;10.65;;;;;;;5.82;98.23;100267.97;5027209;28;20053;-81
2022/02/04 07:20:36;;;;;;;15.65;11.05;;;;;;;5.84;98.62;100266.22;5035027;28;20231;-82
2022/02/04 07:23:03;;;;;;;16.73;10.23;;;;;;;5.86;98.22;100280.09;5015716;28;20578;-88
2022/02/04 07:25:30;;;;;;;17.27;11.10;;;;;;;5.86;98.37;100278.34;5053271;28;20041;-84
2022/02/04 07:27:58;;;;;;;12.50;9.40;;;;;;;5.89;97.91;100278.38;5011531;28;20049;-85
2022/02/04 07:30:24;;;;;;;15.80;11.20;;;;;;;5.92;98.15;100273.19;5049702;28;20735;-84
2022/02/04 07:32:58;;;;;;;16.42;10.15;;;;;;;5.95;97.30;100282.72;5033170;28;20073;-86
2022/02/04 07:38:34;;;;;;;16.35;10.65;;;;;;;5.98;97.44;100285.34;5012850;28;20052;-85
2022/02/04 07:41:07;;;;;;;16.08;10.95;;;;;;;6.01;96.46;100287.09;5037687;28;20052;-85
2022/02/04 07:43:34;;;;;;;17.00;10.57;;;;;;;6.08;95.92;100278.47;5040837;28;20094;-81
2022/02/04 07:46:00;;;;;;;12.75;9.30;;;;;;;6.11;96.06;100268.09;5032832;28;20103;-85
2022/02/04 07:48:29;;;;;;;13.38;8.35;;;;;;;6.11;95.65;100281.06;5024120;28;20085;-81
2022/02/04 07:50:56;;;;;;;21.83;9.10;;;;;;;6.15;94.91;100285.41;5039664;28;20072;-84
2022/02/04 07:53:24;;;;;;;12.45;8.95;;;;;;;6.17;95.11;100275.06;5037782;28;20078;-82
2022/02/04 07:55:51;;;;;;;11.98;7.95;;;;;;;6.24;94.62;100272.44;5042653;28;20049;-86
2022/02/04 07:58:18;;;;;;;12.18;8.25;;;;;;;6.27;94.63;100275.06;5038866;28;20967;-84
2022/02/04 08:00:46;;;;;;;12.55;8.07;;;;;;;6.33;93.67;100268.16;5028836;28;20533;-83
2022/02/04 08:03:29;;;;;;;11.95;8.95;;;;;;;6.35;94.05;100266.41;5043964;28;20045;-83
2022/02/04 08:06:01;;;;;;;11.40;8.43;;;;;;;6.37;94.05;100262.09;5035353;28;20056;-86
2022/02/04 08:08:35;;;;;;;8.95;7.78;;;;;;;6.44;92.81;100250.81;5020055;28;20067;-81
2022/02/04 08:11:16;;;;;;;10.98;8.38;;;;;;;6.44;92.74;100271.63;5030047;28;20040;-85
2022/02/04 08:14:09;;;;;;;11.10;8.00;;;;;;;6.47;92.17;100263.84;5051805;28;20052;-85
2022/02/04 08:17:08;;;;;;;13.30;8.32;;;;;;;6.48;92.35;100269.91;5047561;28;20057;-85
2022/02/04 08:28:20;;;;;;;9.73;7.45;;;;;;;6.58;91.40;100250.84;5039460;28;20080;-82
2022/02/04 08:33:55;;;;;;;10.65;7.43;;;;;;;6.64;91.02;100247.41;5031127;28;20045;-84
2022/02/04 08:36:30;;;;;;;10.45;7.18;;;;;;;6.62;90.79;100244.78;5038825;28;20634;-84
2022/02/04 08:39:12;;;;;;;9.60;7.07;;;;;;;6.61;91.34;100243.91;5042754;28;20053;-83
2022/02/04 08:50:32;;;;;;;10.50;7.10;;;;;;;6.52;93.17;100251.72;5024354;28;20356;-85
2022/02/04 08:53:08;;;;;;;11.02;7.18;;;;;;;6.56;93.35;100242.19;5039888;28;20065;-84
2022/02/04 08:55:47;;;;;;;8.85;6.88;;;;;;;6.53;93.07;100240.47;5057103;28;20073;-82
2022/02/04 09:01:02;;;;;;;7.65;6.78;;;;;;;6.60;92.13;100234.38;5025964;28;20132;-89
2022/02/04 09:03:40;;;;;;;8.95;7.25;;;;;;;6.63;92.46;100238.72;5041380;28;20147;-84
2022/02/04 09:06:11;;;;;;;8.57;6.70;;;;;;;6.68;92.22;100229.19;5042075;28;20238;-84
2022/02/04 09:08:43;;;;;;;8.70;7.15;;;;;;;6.69;91.97;100230.03;5032273;28;20059;-84
2022/02/04 09:11:15;;;;;;;8.98;6.60;;;;;;;6.72;92.04;100233.50;5036531;28;20041;-84
2022/02/04 09:19:18;;;;;;;8.77;7.45;;;;;;;6.81;91.31;100231.78;5025113;28;20338;-84
2022/02/04 09:24:25;;;;;;;7.75;6.35;;;;;;;6.83;90.98;100220.53;5040530;28;20091;-88
2022/02/04 09:26:53;;;;;;;9.70;6.78;;;;;;;6.86;90.86;100217.06;5028960;28;20037;-83
2022/02/04 09:29:20;;;;;;;6.75;5.80;;;;;;;6.88;90.65;100213.59;5016268;28;20045;-85
2022/02/04 09:31:47;;;;;;;7.45;6.68;;;;;;;6.89;90.75;100215.28;5037948;28;20044;-85
2022/02/04 09:34:13;;;;;;;9.00;6.60;;;;;;;6.93;90.22;100210.94;5035466;28;20053;-85
2022/02/04 09:36:41;;;;;;;9.20;6.38;;;;;;;6.91;89.82;100208.38;5031231;28;21057;-85
2022/02/04 09:39:11;;;;;;;8.88;6.55;;;;;;;6.90;89.69;100198.81;5034398;28;20149;-91
2022/02/04 09:41:38;;;;;;;8.18;6.13;;;;;;;6.95;89.90;100197.06;4999090;28;20045;-85
2022/02/04 09:44:05;;;;;;;6.82;5.80;;;;;;;7.02;89.50;100194.47;5036505;28;20056;-86
2022/02/04 09:46:35;;;;;;;7.28;6.00;;;;;;;7.04;89.85;100190.09;5035463;28;20048;-84
2022/02/04 09:49:06;;;;;;;6.00;4.93;;;;;;;7.07;90.24;100188.38;4995677;28;20059;-83
2022/02/04 09:51:53;;;;;;;8.80;6.15;;;;;;;7.13;89.42;100195.28;5017996;28;20080;-85
2022/02/04 10:15:03;;;;;;;5.63;4.20;;;;;;;7.52;86.88;100185.66;5045113;28;20051;-84
2022/02/04 10:17:37;;;;;;;4.18;3.78;;;;;;;7.52;86.97;100176.97;5030013;28;20045;-85
2022/02/04 10:20:04;;;;;;;3.67;3.33;;;;;;;7.56;87.22;100169.13;5011546;28;20045;-84
2022/02/04 10:22:33;;;;;;;4.88;3.85;;;;;;;7.61;86.79;100162.16;5026821;28;20046;-83
2022/02/04 10:25:11;;;;;;;4.32;3.40;;;;;;;7.59;86.21;100160.44;5025842;28;20057;-86
2022/02/04 10:27:41;;;;;;;5.38;3.67;;;;;;;7.57;86.29;100151.75;5013622;28;20052;-84
2022/02/04 10:30:16;;;;;;;6.65;4.28;;;;;;;7.54;85.30;100152.63;5026164;28;20053;-83
2022/02/04 10:32:51;;;;;;;3.40;3.10;;;;;;;7.51;84.96;100152.66;5014194;28;20048;-85
2022/02/04 10:35:26;;;;;;;5.85;3.92;;;;;;;7.58;85.10;100141.31;5029224;28;20055;-84
2022/02/04 10:38:18;;;;;;;4.90;3.65;;;;;;;7.64;85.11;100134.34;4991617;28;20064;-87
2022/02/04 10:40:56;;;;;;;4.80;3.67;;;;;;;7.65;85.17;100141.31;5028830;28;20829;-85
2022/02/04 10:43:46;;;;;;;4.10;3.00;;;;;;;7.70;83.68;100127.38;5008171;28;20052;-85
2022/02/04 10:46:28;;;;;;;4.82;3.58;;;;;;;7.82;83.41;100112.53;5027812;28;20049;-86
2022/02/04 10:49:29;;;;;;;3.00;2.75;;;;;;;7.98;82.86;100108.97;5037086;28;20060;-86
2022/02/04 10:52:27;;;;;;;3.58;3.28;;;;;;;8.13;81.16;100097.56;5011870;28;20059;-86
2022/02/04 10:55:33;;;;;;;2.88;2.67;;;;;;;8.13;81.39;100096.69;5008085;28;20056;-84
2022/02/04 10:58:17;;;;;;;3.15;2.92;;;;;;;8.16;80.99;100097.53;5013666;28;20076;-87
2022/02/04 11:01:07;;;;;;;3.67;2.83;;;;;;;8.17;80.82;100078.41;5010740;28;20052;-85
2022/02/04 11:03:38;;;;;;;2.55;2.28;;;;;;;8.06;80.83;100085.47;5026530;28;20198;-85
2022/02/04 11:06:16;;;;;;;2.97;2.65;;;;;;;8.06;81.32;100075.03;5025489;28;20151;-83
2022/02/04 11:09:04;;;;;;;4.55;2.67;;;;;;;8.05;81.59;100081.97;5019280;28;20056;-84
2022/02/04 11:11:52;;;;;;;3.45;2.20;;;;;;;8.09;81.89;100081.06;4998587;28;20045;-83
2022/02/04 11:31:03;;;;;;;4.30;2.55;;;;;;;8.21;81.26;100051.44;5031611;28;20079;-87
2022/02/04 11:49:00;;;;;;;1.60;1.50;;;;;;;8.40;82.52;100007.78;5034601;28;20075;-84
2022/02/04 11:51:35;;;;;;;2.80;1.95;;;;;;;8.46;82.29;100009.50;5021603;28;20159;-85
2022/02/04 11:54:31;;;;;;;2.90;2.15;;;;;;;8.33;81.94;100000.91;5038405;28;20544;-86
2022/02/04 11:56:57;;;;;;;2.13;2.03;;;;;;;8.18;83.08;99994.09;5044691;28;20029;-84
2022/02/04 12:00:02;;;;;;;1.90;1.80;;;;;;;8.10;83.29;99988.09;5059631;28;21108;-84
2022/02/04 12:02:40;;;;;;;2.00;1.90;;;;;;;8.10;83.60;99982.88;5060657;28;20088;-83
2022/02/04 12:05:12;;;;;;;4.38;1.90;;;;;;;8.14;82.42;99978.50;5071984;28;20060;-85
2022/02/04 12:13:14;;;;;;;1.45;1.33;;;;;;;8.34;81.43;99967.84;5056304;28;20048;-84
2022/02/04 12:15:56;;;;;;;1.20;1.10;;;;;;;8.39;80.69;99969.53;5021676;28;20072;-86
2022/02/04 12:18:44;;;;;;;2.50;1.40;;;;;;;8.47;78.99;99937.31;5028049;28;20064;-84
2022/02/04 12:21:17;;;;;;;0.75;0.75;;;;;;;8.50;79.59;99972.06;5031001;28;20049;-85
2022/02/04 12:23:50;;;;;;;1.67;0.80;;;;;;;8.61;78.92;99962.34;5023287;28;20114;-85
2022/02/04 12:26:34;;;;;;;0.90;0.90;;;;;;;8.64;78.54;99944.94;5018691;28;20045;-83
2022/02/04 12:29:05;;;;;;;0.95;0.95;;;;;;;8.69;78.42;99962.25;5037850;28;20252;-84
2022/02/04 12:31:36;;;;;;;1.00;1.00;;;;;;;8.74;78.51;99938.72;5038993;28;20061;-82
2022/02/04 12:34:03;;;;;;;0.88;0.88;;;;;;;8.77;78.42;99944.78;5012567;28;20364;-86
2022/02/04 12:36:36;;;;;;;1.63;1.52;;;;;;;8.75;78.12;99920.44;5035532;28;20079;-88
2022/02/04 12:39:12;;;;;;;0.82;0.82;;;;;;;8.82;77.93;99922.97;5015508;28;20057;-86
2022/02/04 12:41:54;;;;;;;1.08;1.08;;;;;;;8.95;76.09;99908.84;5021711;28;20052;-86
2022/02/04 12:44:35;;;;;;;0.77;0.77;;;;;;;8.96;76.24;99907.09;5032328;28;20126;-87
2022/02/04 12:47:08;;;;;;;1.13;0.90;;;;;;;8.96;76.27;99907.09;5035535;28;20049;-86
2022/02/04 12:49:51;;;;;;;0.80;0.70;;;;;;;9.03;76.09;99900.91;5030562;28;20045;-85
2022/02/04 12:52:24;;;;;;;0.73;0.73;;;;;;;9.05;75.57;99894.78;5034568;28;20601;-83
2022/02/04 12:55:01;;;;;;;1.00;1.00;;;;;;;9.07;75.44;99895.66;5019476;28;20053;-85
2022/02/04 12:57:33;;;;;;;0.65;0.50;;;;;;;9.02;76.06;99888.75;5028928;28;20399;-88
2022/02/04 13:00:37;;;;;;;1.10;0.82;;;;;;;8.97;75.69;99883.59;5020350;28;20045;-86
2022/02/04 13:03:08;;;;;;;0.60;0.60;;;;;;;8.86;76.38;99875.91;5033210;28;20170;-84
2022/02/04 13:11:17;;;;;;;0.50;0.50;;;;;;;8.51;77.36;99881.63;5034463;28;20033;-83
2022/02/04 13:13:55;;;;;;;0.60;0.60;;;;;;;8.40;77.64;99872.16;5016733;28;20403;-88
2022/02/04 13:16:31;;;;;;;1.15;0.52;;;;;;;8.38;78.05;99860.91;5010204;28;20135;-85
2022/02/04 13:19:02;;;;;;;0.68;0.40;;;;;;;8.39;77.96;99864.34;5032462;28;20052;-84
2022/02/04 13:21:31;;;;;;;0.82;0.40;;;;;;;8.43;77.83;99866.03;5030149;28;20049;-84
2022/02/04 13:24:08;;;;;;;1.27;0.93;;;;;;;8.47;77.40;99851.25;5014753;28;20049;-86
2022/02/04 13:26:35;;;;;;;1.25;0.98;;;;;;;8.46;77.28;99853.00;5030814;28;20088;-86
2022/02/04 13:29:08;;;;;;;0.32;0.32;;;;;;;8.46;77.80;99850.41;5001225;28;20059;-86
2022/02/04 13:31:36;;;;;;;0.47;0.47;;;;;;;8.52;77.41;99829.44;5042779;28;20049;-87
2022/02/04 13:34:13;;;;;;;0.60;0.60;;;;;;;8.53;75.85;99823.34;5042448;28;20041;-86
2022/02/04 13:36:46;;;;;;;0.20;0.20;;;;;;;8.54;75.59;99830.28;5048408;28;20037;-87
2022/02/04 13:39:30;;;;;;;0.30;0.20;;;;;;;8.59;75.50;99838.03;5020764;28;20056;-84
2022/02/04 13:42:24;;;;;;;0.32;0.32;;;;;;;8.59;75.75;99827.59;5040153;28;20072;-87
2022/02/04 13:44:57;;;;;;;0.80;0.20;;;;;;;8.62;74.96;99827.56;5028073;28;20148;-86
2022/02/04 13:47:44;;;;;;;0.40;0.40;;;;;;;8.65;75.02;99819.69;5029937;28;20053;-87
2022/02/04 13:50:25;;;;;;;0.63;0.25;;;;;;;8.65;75.26;99819.69;5007454;28;20049;-85
2022/02/04 13:53:00;;;;;;;0.55;0.55;;;;;;;8.61;74.98;99816.25;5028105;28;20060;-83
2022/02/04 13:55:42;;;;;;;0.30;0.30;;;;;;;8.60;74.98;99814.56;5034445;28;20072;-82
2022/02/04 13:58:28;;;;;;;0.43;0.43;;;;;;;8.61;75.30;99821.47;5027621;28;20048;-85
2022/02/04 14:01:07;;;;;;;2.40;0.30;;;;;;;8.56;75.37;99812.00;5033172;28;20142;-84
2022/02/04 14:03:46;;;;;;;0.20;0.20;;;;;;;8.54;75.01;99798.09;5015838;28;20396;-84
2022/02/04 14:06:17;;;;;;;0.40;0.35;;;;;;;8.52;75.35;99797.28;5034344;28;21403;-84
2022/02/04 14:08:54;;;;;;;0.40;0.40;;;;;;;8.54;74.54;99790.28;5032307;28;20091;-87
2022/02/04 14:11:37;;;;;;;0.40;0.40;;;;;;;8.49;74.55;99803.41;5027689;28;20219;-84
2022/02/04 14:14:13;;;;;;;2.50;0.40;;;;;;;8.47;74.38;99781.69;5019697;28;20045;-88
2022/02/04 14:16:44;;;;;;;0.88;0.20;;;;;;;8.43;74.29;99782.56;5033210;28;20826;-87
2022/02/04 14:19:11;;;;;;;0.75;0.35;;;;;;;8.40;74.26;99770.44;5034882;28;20044;-83
2022/02/04 14:21:38;;;;;;;0.45;0.45;;;;;;;8.40;74.50;99782.63;5033676;28;20091;-83
2022/02/04 14:24:09;;;;;;;0.17;0.17;;;;;;;8.41;74.88;99786.97;5010429;28;20850;-86
2022/02/04 14:26:40;;;;;;;0.38;0.38;;;;;;;8.37;74.84;99774.84;5018163;28;20076;-85
2022/02/04 14:29:11;;;;;;;1.08;0.50;;;;;;;8.36;74.87;99780.97;5034360;23;20138;-86
2022/02/04 14:31:43;;;;;;;1.10;0.50;;;;;;;8.39;74.80;99775.69;5018276;28;20108;-87
2022/02/04 14:37:04;;;;;;;0.20;0.10;;;;;;;8.37;74.25;99748.75;5019524;28;20045;-84
2022/02/04 14:50:59;;;;;;;0.20;0.20;;;;;;;7.60;84.14;99766.22;5019582;28;20056;-87
2022/02/04 14:53:27;;;;;;;0.77;0.77;;;;;;;7.49;85.07;99747.28;5027464;28;20451;-86
2022/02/04 14:59:02;;;;;;;;;;;;;;;7.40;85.37;99741.25;5018017;28;20102;-85
2022/02/04 15:01:32;;;;;;;2.38;1.23;;;;;;;7.43;84.62;99719.53;5032305;28;19932;-88
2022/02/04 15:04:05;;;;;;;0.40;0.40;;;;;;;7.43;83.90;99724.75;5012737;28;20055;-85
2022/02/04 15:06:37;;;;;;;0.32;0.32;;;;;;;7.45;83.21;99726.47;5023430;28;20474;-84
2022/02/04 15:09:11;;;;;;;0.35;0.35;;;;;;;7.50;82.42;99725.56;5011314;28;20045;-87
2022/02/04 15:11:55;;;;;;;2.42;0.70;;;;;;;7.50;80.32;99722.97;5040752;28;20891;-85
2022/02/04 15:14:34;;;;;;;0.40;0.40;;;;;;;7.56;80.20;99718.53;5029441;28;20049;-87
2022/02/04 15:17:04;;;;;;;0.32;0.28;;;;;;;7.55;80.10;99721.16;5030347;28;20088;-84
2022/02/04 15:19:33;;;;;;;0.30;0.30;;;;;;;7.57;79.49;99708.97;4990119;28;20061;-83
2022/02/04 15:22:03;;;;;;;0.47;0.47;;;;;;;7.55;79.52;99700.34;5028741;28;20060;-86
2022/02/04 15:24:30;;;;;;;0.82;0.82;;;;;;;7.57;80.09;99702.03;5020369;28;20131;-85
2022/02/04 15:26:58;;;;;;;1.30;0.47;;;;;;;7.57;79.58;99693.34;5008391;28;20064;-83
2022/02/04 15:29:25;;;;;;;1.48;1.38;;;;;;;7.58;78.43;99690.72;5028631;28;20064;-86
2022/02/04 15:31:55;;;;;;;0.55;0.55;;;;;;;7.60;78.75;99678.56;5023679;28;20475;-84
2022/02/04 15:34:24;;;;;;;2.70;0.60;;;;;;;7.58;78.61;99689.88;5030058;28;20052;-86
2022/02/04 15:36:55;;;;;;;1.30;0.90;;;;;;;7.57;77.91;99678.59;5043986;28;20056;-85
2022/02/04 15:39:29;;;;;;;1.25;1.00;;;;;;;7.56;77.48;99679.47;4993703;28;20059;-87
2022/02/04 15:42:14;;;;;;;0.70;0.63;;;;;;;7.55;77.36;99663.88;5025281;28;21465;-84
2022/02/04 15:44:56;;;;;;;1.27;0.77;;;;;;;7.51;77.39;99659.56;5028611;28;20049;-86
2022/02/04 15:47:36;;;;;;;1.05;0.95;;;;;;;7.49;77.44;99653.53;5039707;28;20074;-85
2022/02/04 15:52:55;;;;;;;1.13;0.77;;;;;;;7.43;76.33;99641.44;5036691;28;20055;-84
2022/02/04 15:58:24;;;;;;;1.45;0.98;;;;;;;7.44;76.04;99638.81;4988914;28;20053;-85
2022/02/04 16:01:10;;;;;;;0.80;0.80;;;;;;;7.45;75.30;99609.28;5040680;28;20057;-87
2022/02/04 16:04:00;;;;;;;1.00;0.90;;;;;;;7.44;75.54;99625.81;5037450;28;20053;-86
2022/02/04 16:06:26;;;;;;;2.67;2.47;;;;;;;7.46;75.66;99628.38;5030306;28;20587;-87
2022/02/04 16:08:55;;;;;;;0.77;0.75;;;;;;;7.44;75.62;99627.53;5035225;28;20142;-83
2022/02/04 16:11:46;;;;;;;2.03;1.73;;;;;;;7.45;75.57;99619.69;5033325;28;20051;-85
2022/02/04 16:14:18;;;;;;;1.55;0.80;;;;;;;7.44;74.70;99612.78;5034738;28;20060;-86
2022/02/04 16:16:49;;;;;;;0.60;0.60;;;;;;;7.45;75.14;99618.84;5039588;28;20045;-87